createdAt,value
2019-03-18T00:00:29.060Z,4.73
2019-03-18T00:02:58.233Z,4.53
2019-03-18T00:05:27.707Z,5.03
2019-03-18T00:07:56.541Z,4.70
2019-03-18T00:10:26.209Z,4.40
2019-03-18T00:12:54.921Z,4.97
2019-03-18T00:15:23.295Z,4.57
2019-03-18T00:17:51.690Z,4.67
2019-03-18T00:20:20.552Z,5.23
2019-03-18T00:22:48.980Z,5.20
2019-03-18T00:25:17.380Z,5.97
2019-03-18T00:27:46.114Z,5.80
2019-03-18T00:30:14.732Z,5.00
2019-03-18T00:32:43.172Z,5.10
2019-03-18T00:35:11.741Z,4.97
2019-03-18T00:37:40.284Z,4.87
2019-03-18T00:40:09.367Z,4.33
2019-03-18T00:42:38.271Z,4.43
2019-03-18T00:45:14.685Z,4.27
2019-03-18T00:47:37.797Z,3.70
2019-03-18T00:50:06.440Z,4.50
2019-03-18T00:52:34.745Z,4.70
2019-03-18T00:55:03.656Z,4.57
2019-03-18T00:57:32.376Z,3.60
2019-03-18T01:00:01.071Z,4.93
2019-03-18T01:02:35.329Z,4.97
2019-03-18T01:05:04.042Z,4.30
2019-03-18T01:07:33.904Z,4.83
2019-03-18T01:10:02.561Z,5.13
2019-03-18T01:12:31.411Z,5.07
2019-03-18T01:15:00.008Z,5.23
2019-03-18T01:17:28.352Z,4.60
2019-03-18T01:19:57.048Z,4.20
2019-03-18T01:22:25.496Z,5.03
2019-03-18T01:24:54.242Z,5.27
2019-03-18T01:27:25.372Z,6.50
2019-03-18T01:29:53.383Z,5.50
2019-03-18T01:32:21.695Z,5.53
2019-03-18T01:34:50.506Z,4.03
2019-03-18T01:37:19.092Z,2.23
2019-03-18T01:39:47.522Z,4.30
2019-03-18T01:42:16.976Z,2.60
2019-03-18T01:44:45.714Z,3.03
2019-03-18T01:47:14.548Z,2.83
2019-03-18T01:49:43.348Z,2.83
2019-03-18T01:52:12.781Z,2.87
2019-03-18T01:54:41.529Z,3.10
2019-03-18T01:57:10.093Z,2.90
2019-03-18T01:59:38.605Z,4.00
2019-03-18T02:02:07.264Z,3.40
2019-03-18T02:04:35.920Z,3.83
2019-03-18T02:07:04.798Z,4.30
2019-03-18T02:09:33.280Z,3.53
2019-03-18T02:12:01.865Z,4.17
2019-03-18T02:14:30.829Z,3.87
2019-03-18T02:16:59.663Z,4.00
2019-03-18T02:19:28.694Z,3.40
2019-03-18T02:21:57.526Z,3.70
2019-03-18T02:24:26.929Z,3.40
2019-03-18T02:26:55.248Z,4.27
2019-03-18T02:29:23.520Z,4.30
2019-03-18T02:31:52.086Z,2.70
2019-03-18T02:34:21.732Z,3.73
2019-03-18T02:36:50.401Z,4.13
2019-03-18T02:39:19.139Z,4.13
2019-03-18T02:41:47.935Z,4.33
2019-03-18T02:44:16.604Z,4.13
2019-03-18T02:46:45.040Z,5.30
2019-03-18T02:49:13.651Z,4.90
2019-03-18T02:51:42.206Z,4.87
2019-03-18T02:54:10.766Z,4.23
2019-03-18T02:56:39.241Z,5.43
2019-03-18T02:59:08.801Z,4.77
2019-03-18T03:01:37.470Z,3.53
2019-03-18T03:04:09.033Z,3.40
2019-03-18T03:06:38.030Z,3.83
2019-03-18T03:09:06.904Z,3.80
2019-03-18T03:11:35.705Z,3.97
2019-03-18T03:14:04.293Z,3.63
2019-03-18T03:16:32.755Z,3.80
2019-03-18T03:19:01.508Z,3.50
2019-03-18T03:21:30.390Z,3.40
2019-03-18T03:23:59.576Z,3.83
2019-03-18T03:26:28.386Z,4.75
2019-03-18T03:28:56.656Z,3.57
2019-03-18T03:31:26.658Z,3.90
2019-03-18T03:33:55.431Z,3.37
2019-03-18T03:36:24.041Z,3.50
2019-03-18T03:38:52.725Z,4.33
2019-03-18T03:41:22.544Z,3.67
2019-03-18T03:43:51.278Z,3.60
2019-03-18T03:46:19.745Z,3.10
2019-03-18T03:48:48.761Z,3.90
2019-03-18T03:51:17.385Z,3.90
2019-03-18T03:53:46.441Z,3.37
2019-03-18T03:56:15.428Z,3.43
2019-03-18T03:58:44.367Z,3.50
2019-03-18T04:01:12.686Z,3.27
2019-03-18T04:03:41.487Z,4.25
2019-03-18T04:06:09.838Z,3.37
2019-03-18T04:08:38.534Z,3.10
2019-03-18T04:11:08.639Z,4.37
2019-03-18T04:13:37.450Z,3.40
2019-03-18T04:16:06.090Z,3.07
2019-03-18T04:18:34.835Z,3.50
2019-03-18T04:21:04.681Z,3.53
2019-03-18T04:23:33.080Z,3.50
2019-03-18T04:26:02.365Z,2.97
2019-03-18T04:28:30.693Z,3.07
2019-03-18T04:30:59.072Z,2.80
2019-03-18T04:33:27.879Z,2.97
2019-03-18T04:35:56.505Z,2.70
2019-03-18T04:38:25.385Z,3.73
2019-03-18T04:40:53.849Z,3.33
2019-03-18T04:43:22.258Z,2.83
2019-03-18T04:45:50.902Z,3.20
2019-03-18T04:48:19.340Z,2.33
2019-03-18T04:50:48.562Z,3.13
2019-03-18T04:53:17.061Z,2.63
2019-03-18T04:55:45.780Z,3.10
2019-03-18T04:58:14.675Z,2.37
2019-03-18T05:00:43.662Z,2.43
2019-03-18T05:03:12.554Z,2.73
2019-03-18T05:05:41.402Z,2.57
2019-03-18T05:08:10.057Z,2.50
2019-03-18T05:10:38.768Z,2.37
2019-03-18T05:13:07.420Z,3.03
2019-03-18T05:15:35.992Z,2.87
2019-03-18T05:18:04.555Z,2.30
2019-03-18T05:20:33.016Z,2.30
2019-03-18T05:23:01.582Z,2.43
2019-03-18T05:25:29.788Z,2.63
2019-03-18T05:27:58.366Z,2.17
2019-03-18T05:30:26.977Z,2.70
2019-03-18T05:32:55.345Z,2.60
2019-03-18T05:35:24.091Z,2.83
2019-03-18T05:37:52.737Z,2.43
2019-03-18T05:40:21.465Z,2.90
2019-03-18T05:42:50.396Z,1.97
2019-03-18T05:45:18.715Z,3.37
2019-03-18T05:47:47.197Z,2.43
2019-03-18T05:50:16.215Z,2.47
2019-03-18T05:52:44.943Z,2.70
2019-03-18T05:55:13.444Z,2.50
2019-03-18T05:57:41.904Z,2.50
2019-03-18T06:00:10.483Z,2.87
2019-03-18T06:02:38.980Z,4.60
2019-03-18T06:05:07.516Z,2.53
2019-03-18T06:07:36.056Z,2.40
2019-03-18T06:10:04.947Z,4.30
2019-03-18T06:12:33.766Z,2.70
2019-03-18T06:15:02.810Z,2.60
2019-03-18T06:17:31.591Z,3.30
2019-03-18T06:20:00.278Z,4.00
2019-03-18T06:22:28.800Z,2.20
2019-03-18T06:24:57.810Z,2.27
2019-03-18T06:27:26.651Z,2.10
2019-03-18T06:29:55.198Z,2.63
2019-03-18T06:32:24.173Z,2.60
2019-03-18T06:34:53.007Z,2.33
2019-03-18T06:37:21.852Z,3.10
2019-03-18T06:39:50.754Z,2.10
2019-03-18T06:42:19.387Z,2.47
2019-03-18T06:44:47.890Z,2.83
2019-03-18T06:47:16.550Z,2.47
2019-03-18T06:49:45.529Z,2.40
2019-03-18T06:52:14.421Z,2.30
2019-03-18T06:54:43.083Z,2.30
2019-03-18T06:57:11.788Z,2.50
2019-03-18T06:59:40.208Z,2.40
2019-03-18T07:02:08.545Z,2.47
2019-03-18T07:04:37.089Z,3.40
2019-03-18T07:07:05.670Z,2.83
2019-03-18T07:09:33.986Z,2.93
2019-03-18T07:12:02.532Z,3.07
2019-03-18T07:14:31.100Z,2.73
2019-03-18T07:16:59.648Z,2.57
2019-03-18T07:19:28.245Z,2.60
2019-03-18T07:21:56.617Z,2.00
2019-03-18T07:24:24.964Z,2.57
2019-03-18T07:26:53.340Z,1.97
2019-03-18T07:29:21.960Z,1.97
2019-03-18T07:31:50.761Z,2.03
2019-03-18T07:34:19.783Z,2.37
2019-03-18T07:36:48.359Z,2.20
2019-03-18T07:39:16.901Z,2.80
2019-03-18T07:41:45.592Z,2.00
2019-03-18T07:44:14.193Z,2.10
2019-03-18T07:46:42.750Z,2.73
2019-03-18T07:49:11.592Z,2.10
2019-03-18T07:51:40.222Z,1.90
2019-03-18T07:54:08.856Z,2.60
2019-03-18T07:56:37.265Z,1.70
2019-03-18T07:59:05.678Z,2.37
2019-03-18T08:01:34.026Z,1.67
2019-03-18T08:04:02.369Z,1.93
2019-03-18T08:06:30.810Z,1.87
2019-03-18T08:08:59.509Z,1.87
2019-03-18T08:11:28.045Z,2.43
2019-03-18T08:13:56.657Z,2.03
2019-03-18T08:16:25.257Z,2.07
2019-03-18T08:18:53.725Z,2.40
2019-03-18T08:21:22.356Z,2.50
2019-03-18T08:23:52.338Z,2.07
2019-03-18T08:26:20.956Z,1.70
2019-03-18T08:28:49.546Z,1.70
2019-03-18T08:31:18.330Z,2.20
2019-03-18T08:33:46.992Z,1.87
2019-03-18T08:36:15.541Z,1.70
2019-03-18T08:38:45.357Z,2.77
2019-03-18T08:41:14.013Z,2.67
2019-03-18T08:43:42.158Z,2.10
2019-03-18T08:46:10.805Z,2.00
2019-03-18T08:48:39.413Z,2.30
2019-03-18T08:51:07.787Z,2.53
2019-03-18T08:53:36.865Z,2.03
2019-03-18T08:56:05.435Z,2.07
2019-03-18T08:58:33.917Z,2.10
2019-03-18T09:01:02.440Z,2.23
2019-03-18T09:03:55.517Z,1.80
2019-03-18T09:06:24.507Z,2.23
2019-03-18T09:08:53.312Z,2.30
2019-03-18T09:11:22.025Z,2.25
2019-03-18T09:13:50.871Z,2.10
2019-03-18T09:16:19.429Z,2.10
2019-03-18T09:18:48.161Z,2.33
2019-03-18T09:21:16.935Z,2.17
2019-03-18T09:23:45.360Z,2.17
2019-03-18T09:26:13.937Z,1.53
2019-03-18T09:28:42.537Z,2.92
2019-03-18T09:31:11.397Z,2.00
2019-03-18T09:33:41.148Z,1.73
2019-03-18T09:36:09.966Z,4.47
2019-03-18T09:38:45.161Z,2.97
2019-03-18T09:41:14.285Z,1.50
2019-03-18T09:43:43.572Z,1.87
2019-03-18T09:46:12.654Z,1.97
2019-03-18T09:48:41.354Z,1.50
2019-03-18T09:51:10.254Z,1.73
2019-03-18T09:53:40.160Z,2.57
2019-03-18T09:56:08.901Z,1.83
2019-03-18T09:58:37.316Z,2.37
2019-03-18T10:01:05.785Z,2.40
2019-03-18T10:03:34.308Z,2.10
2019-03-18T10:06:03.010Z,2.63
2019-03-18T10:08:31.811Z,2.10
2019-03-18T10:11:00.428Z,1.77
2019-03-18T10:13:29.943Z,1.57
2019-03-18T10:15:58.364Z,2.17
2019-03-18T10:18:27.024Z,2.20
2019-03-18T10:20:55.775Z,1.93
2019-03-18T10:23:24.473Z,2.63
2019-03-18T10:25:53.030Z,1.93
2019-03-18T10:28:21.529Z,2.37
2019-03-18T10:30:49.785Z,2.37
2019-03-18T10:33:18.375Z,2.00
2019-03-18T10:35:46.937Z,2.50
2019-03-18T10:38:15.663Z,1.90
2019-03-18T10:40:44.018Z,1.97
2019-03-18T10:43:12.424Z,2.13
2019-03-18T10:45:40.797Z,2.20
2019-03-18T10:48:09.124Z,2.20
2019-03-18T10:50:37.733Z,2.20
2019-03-18T10:53:06.549Z,2.70
2019-03-18T10:55:34.798Z,2.60
2019-03-18T10:58:03.663Z,2.27
2019-03-18T11:00:32.287Z,2.10
2019-03-18T11:03:00.917Z,2.27
2019-03-18T11:05:29.611Z,1.60
2019-03-18T11:07:58.350Z,1.93
2019-03-18T11:10:26.837Z,1.77
2019-03-18T11:12:55.428Z,2.20
2019-03-18T11:15:24.045Z,2.20
2019-03-18T11:17:52.806Z,1.70
2019-03-18T11:20:21.336Z,2.10
2019-03-18T11:22:49.955Z,2.00
2019-03-18T11:25:18.421Z,1.90
2019-03-18T11:27:47.333Z,2.17
2019-03-18T11:30:16.272Z,2.00
2019-03-18T11:32:44.541Z,2.70
2019-03-18T11:35:13.337Z,1.87
2019-03-18T11:37:42.882Z,1.70
2019-03-18T11:40:11.823Z,2.70
2019-03-18T11:42:40.244Z,1.93
2019-03-18T11:45:09.352Z,1.93
2019-03-18T11:47:38.303Z,1.73
2019-03-18T11:50:11.468Z,2.00
2019-03-18T11:52:37.729Z,1.83
2019-03-18T11:55:07.364Z,2.40
2019-03-18T11:57:36.891Z,1.70
2019-03-18T12:00:05.910Z,2.20
2019-03-18T12:02:34.574Z,1.83
2019-03-18T12:05:03.716Z,1.90
2019-03-18T12:07:33.593Z,2.17
2019-03-18T12:10:02.356Z,2.10
2019-03-18T12:12:31.153Z,2.77
2019-03-18T12:14:59.995Z,2.67
2019-03-18T12:17:29.391Z,2.10
2019-03-18T12:19:57.870Z,1.70
2019-03-18T12:22:26.559Z,2.10
2019-03-18T12:24:55.002Z,2.50
2019-03-18T12:27:23.561Z,2.10
2019-03-18T12:29:52.055Z,1.90
2019-03-18T12:32:20.678Z,1.87
2019-03-18T12:34:49.440Z,2.30
2019-03-18T12:37:18.472Z,1.93
2019-03-18T12:39:47.100Z,1.90
2019-03-18T12:42:15.756Z,2.23
2019-03-18T12:44:44.124Z,3.63
2019-03-18T12:47:12.508Z,2.00
2019-03-18T12:49:40.868Z,1.70
2019-03-18T12:52:09.581Z,1.90
2019-03-18T12:54:37.953Z,1.97
2019-03-18T12:57:06.889Z,1.57
2019-03-18T12:59:35.724Z,1.97
2019-03-18T13:02:04.530Z,2.30
2019-03-18T13:04:34.273Z,1.53
2019-03-18T13:07:03.315Z,2.67
2019-03-18T13:09:31.968Z,1.87
2019-03-18T13:12:00.938Z,2.37
2019-03-18T13:14:29.329Z,1.83
2019-03-18T13:16:57.997Z,1.90
2019-03-18T13:19:26.335Z,2.12
2019-03-18T13:21:54.885Z,2.22
2019-03-18T13:24:23.412Z,2.37
2019-03-18T13:26:51.756Z,2.43
2019-03-18T13:29:20.166Z,3.17
2019-03-18T13:31:48.885Z,1.93
2019-03-18T13:34:17.470Z,1.90
2019-03-18T13:36:45.852Z,2.30
2019-03-18T13:39:14.636Z,2.20
2019-03-18T13:41:43.383Z,2.20
2019-03-18T13:44:11.908Z,2.20
2019-03-18T13:46:40.754Z,1.80
2019-03-18T13:49:09.461Z,2.50
2019-03-18T13:51:37.976Z,2.43
2019-03-18T13:54:06.660Z,2.73
2019-03-18T13:56:35.204Z,2.93
2019-03-18T13:59:04.082Z,2.07
2019-03-18T14:01:32.710Z,1.90
2019-03-18T14:04:01.555Z,2.07
2019-03-18T14:06:30.217Z,2.10
2019-03-18T14:08:58.569Z,2.20
2019-03-18T14:11:27.534Z,2.57
2019-03-18T14:13:55.945Z,2.33
2019-03-18T14:16:24.513Z,2.33
2019-03-18T14:18:52.941Z,2.17
2019-03-18T14:21:32.514Z,2.20
2019-03-18T14:23:52.180Z,1.80
2019-03-18T14:26:20.956Z,3.00
2019-03-18T14:28:49.589Z,2.50
2019-03-18T14:31:18.529Z,2.80
2019-03-18T14:33:47.094Z,3.13
2019-03-18T14:36:15.599Z,2.70
2019-03-18T14:38:45.184Z,3.07
2019-03-18T14:41:13.739Z,2.93
2019-03-18T14:43:42.321Z,2.17
2019-03-18T14:46:11.381Z,2.27
2019-03-18T14:48:40.048Z,2.37
2019-03-18T14:51:09.351Z,2.50
2019-03-18T14:53:38.029Z,2.80
2019-03-18T14:56:06.666Z,3.30
2019-03-18T14:58:35.722Z,3.33
2019-03-18T15:01:05.066Z,2.80
2019-03-18T15:03:33.447Z,3.30
2019-03-18T15:06:06.161Z,3.67
2019-03-18T15:08:35.375Z,3.30
2019-03-18T15:11:04.222Z,2.97
2019-03-18T15:13:32.697Z,2.50
2019-03-18T15:16:01.390Z,2.50
2019-03-18T15:18:30.369Z,4.03
2019-03-18T15:20:58.692Z,3.17
2019-03-18T15:23:27.185Z,3.07
2019-03-18T15:25:56.178Z,2.70
2019-03-18T15:28:24.424Z,3.00
2019-03-18T15:30:53.447Z,3.33
2019-03-18T15:33:22.350Z,3.13
2019-03-18T15:35:51.698Z,3.63
2019-03-18T15:38:20.641Z,2.80
2019-03-18T15:40:51.274Z,3.33
2019-03-18T15:43:20.057Z,3.33
2019-03-18T15:45:48.676Z,3.83
2019-03-18T15:48:17.015Z,3.23
2019-03-18T15:50:45.420Z,3.07
2019-03-18T15:53:13.821Z,3.63
2019-03-18T15:55:42.538Z,3.60
2019-03-18T15:58:11.188Z,3.90
2019-03-18T16:00:39.928Z,3.73
2019-03-18T16:03:08.581Z,4.40
2019-03-18T16:05:37.607Z,4.13
2019-03-18T16:08:06.279Z,3.90
2019-03-18T16:10:35.121Z,3.97
2019-03-18T16:13:03.553Z,4.20
2019-03-18T16:15:32.084Z,4.67
2019-03-18T16:18:00.720Z,4.77
2019-03-18T16:20:29.377Z,4.40
2019-03-18T16:22:58.046Z,4.30
2019-03-18T16:25:32.084Z,3.80
2019-03-18T16:28:02.785Z,4.70
2019-03-18T16:30:31.438Z,4.07
2019-03-18T16:33:04.070Z,4.53
2019-03-18T16:35:32.548Z,4.60
2019-03-18T16:38:01.429Z,6.33
2019-03-18T16:40:29.849Z,5.23
2019-03-18T16:42:58.480Z,4.97
2019-03-18T16:45:26.984Z,5.40
2019-03-18T16:47:55.398Z,5.07
2019-03-18T16:50:24.246Z,5.00
2019-03-18T16:52:53.084Z,5.17
2019-03-18T16:55:22.079Z,5.83
2019-03-18T16:57:51.012Z,4.73
2019-03-18T17:00:20.063Z,4.80
2019-03-18T17:02:48.919Z,5.20
2019-03-18T17:05:19.077Z,5.13
2019-03-18T17:07:47.968Z,5.70
2019-03-18T17:10:16.564Z,5.80
2019-03-18T17:12:45.334Z,6.90
2019-03-18T17:15:14.023Z,7.00
2019-03-18T17:17:42.677Z,8.67
2019-03-18T17:20:11.572Z,9.00
2019-03-18T17:22:48.818Z,8.40
2019-03-18T17:25:11.715Z,9.27
2019-03-18T17:27:40.110Z,9.47
2019-03-18T17:30:10.392Z,7.50
2019-03-18T17:32:38.777Z,9.53
2019-03-18T17:35:07.398Z,8.60
2019-03-18T17:37:36.119Z,9.67
2019-03-18T17:40:04.713Z,10.93
2019-03-18T17:42:33.854Z,9.50
2019-03-18T17:45:02.243Z,9.63
2019-03-18T17:47:33.748Z,10.53
2019-03-18T17:50:02.233Z,11.30
2019-03-18T17:52:31.199Z,10.90
2019-03-18T17:54:59.697Z,10.20
2019-03-18T17:57:28.021Z,9.87
2019-03-18T17:59:56.937Z,10.17
2019-03-18T18:02:26.429Z,11.13
2019-03-18T18:05:02.832Z,13.97
2019-03-18T18:07:25.597Z,10.27
2019-03-18T18:09:53.800Z,10.63
2019-03-18T18:12:22.281Z,9.83
2019-03-18T18:14:50.926Z,10.10
2019-03-18T18:17:19.372Z,11.00
2019-03-18T18:19:47.896Z,10.83
2019-03-18T18:22:16.424Z,11.87
2019-03-18T18:24:45.156Z,12.27
2019-03-18T18:27:13.488Z,11.60
2019-03-18T18:29:42.116Z,12.63
2019-03-18T18:32:13.332Z,12.70
2019-03-18T18:34:41.873Z,21.93
2019-03-18T18:37:10.647Z,16.47
2019-03-18T18:39:39.172Z,19.43
2019-03-18T18:42:08.106Z,40.83
2019-03-18T18:44:36.392Z,34.03
2019-03-18T18:47:04.937Z,35.20
2019-03-18T18:49:33.521Z,24.40
2019-03-18T18:52:02.449Z,16.67
2019-03-18T18:54:31.094Z,14.53
2019-03-18T18:56:59.990Z,14.13
2019-03-18T18:59:28.662Z,14.53
2019-03-18T19:01:57.347Z,16.30
2019-03-18T19:04:26.280Z,19.83
2019-03-18T19:06:55.027Z,17.70
2019-03-18T19:09:23.529Z,17.27
2019-03-18T19:11:52.332Z,23.33
2019-03-18T19:14:21.083Z,18.07
2019-03-18T19:16:50.087Z,18.53
2019-03-18T19:19:18.912Z,17.23
2019-03-18T19:21:47.343Z,18.53
2019-03-18T19:24:16.130Z,19.47
2019-03-18T19:26:47.937Z,18.77
2019-03-18T19:29:16.937Z,21.13
2019-03-18T19:31:45.428Z,22.70
2019-03-18T19:34:14.309Z,21.60
2019-03-18T19:36:50.004Z,20.00
2019-03-18T19:39:18.696Z,19.93
2019-03-18T19:41:47.432Z,19.07
2019-03-18T19:44:16.016Z,18.10
2019-03-18T19:46:45.590Z,16.30
2019-03-18T19:49:14.240Z,15.67
2019-03-18T19:51:42.663Z,17.00
2019-03-18T19:54:13.004Z,16.97
2019-03-18T19:56:41.602Z,15.63
2019-03-18T19:59:10.036Z,16.97
2019-03-18T20:01:38.608Z,15.97
2019-03-18T20:04:07.088Z,15.37
2019-03-18T20:06:35.914Z,15.03
2019-03-18T20:09:06.367Z,15.77
2019-03-18T20:11:35.232Z,14.83
2019-03-18T20:14:03.765Z,15.00
2019-03-18T20:16:32.505Z,15.23
2019-03-18T20:19:00.996Z,14.07
2019-03-18T20:21:29.442Z,16.13
2019-03-18T20:24:01.131Z,14.10
2019-03-18T20:26:30.377Z,15.00
2019-03-18T20:28:58.837Z,13.67
2019-03-18T20:31:27.289Z,13.57
2019-03-18T20:33:55.941Z,14.87
2019-03-18T20:36:24.553Z,14.67
2019-03-18T20:38:53.299Z,15.07
2019-03-18T20:41:22.570Z,14.43
2019-03-18T20:43:52.453Z,14.83
2019-03-18T20:46:21.198Z,15.40
2019-03-18T20:48:51.259Z,15.63
2019-03-18T20:51:19.870Z,15.90
2019-03-18T20:53:48.133Z,16.27
2019-03-18T20:56:17.245Z,16.57
2019-03-18T20:58:45.904Z,17.00
2019-03-18T21:01:15.129Z,17.87
2019-03-18T21:03:43.366Z,17.07
2019-03-18T21:06:11.884Z,18.63
2019-03-18T21:08:40.122Z,18.73
2019-03-18T21:11:08.643Z,20.57
2019-03-18T21:13:37.604Z,19.37
2019-03-18T21:16:06.001Z,18.43
2019-03-18T21:18:34.360Z,17.30
2019-03-18T21:21:02.946Z,17.80
2019-03-18T21:23:31.791Z,15.33
2019-03-18T21:26:00.586Z,14.20
2019-03-18T21:28:29.163Z,12.63
2019-03-18T21:30:58.156Z,9.03
2019-03-18T21:33:27.150Z,10.07
2019-03-18T21:35:56.156Z,10.13
2019-03-18T21:38:24.828Z,9.87
2019-03-18T21:40:53.656Z,19.75
2019-03-18T21:43:22.092Z,9.00
2019-03-18T21:45:51.603Z,8.67
2019-03-18T21:48:20.333Z,18.33
2019-03-18T21:50:48.791Z,9.47
2019-03-18T21:53:17.559Z,7.57
2019-03-18T21:55:46.189Z,6.83
2019-03-18T21:58:14.769Z,6.03
2019-03-18T22:00:43.254Z,5.37
2019-03-18T22:03:11.577Z,5.70
2019-03-18T22:05:40.587Z,5.20
2019-03-18T22:08:08.958Z,4.90
2019-03-18T22:10:37.557Z,5.50
2019-03-18T22:13:06.377Z,5.47
2019-03-18T22:15:34.967Z,5.10
2019-03-18T22:18:03.716Z,4.97
2019-03-18T22:20:32.106Z,4.90
2019-03-18T22:23:00.449Z,5.17
2019-03-18T22:25:29.080Z,5.17
2019-03-18T22:27:57.933Z,4.10
2019-03-18T22:30:26.781Z,4.30
2019-03-18T22:32:55.610Z,4.93
2019-03-18T22:35:24.405Z,4.87
2019-03-18T22:37:52.964Z,5.67
2019-03-18T22:40:36.386Z,4.70
2019-03-18T22:43:02.157Z,4.13
2019-03-18T22:45:41.891Z,5.07
2019-03-18T22:48:11.939Z,4.93
2019-03-18T22:50:40.260Z,6.77
2019-03-18T22:53:08.674Z,5.07
2019-03-18T22:55:37.320Z,4.60
2019-03-18T22:58:06.064Z,5.47
2019-03-18T23:00:42.539Z,4.43
2019-03-18T23:03:11.463Z,4.63
2019-03-18T23:05:40.487Z,4.67
2019-03-18T23:08:09.358Z,4.77
2019-03-18T23:10:37.761Z,4.40
2019-03-18T23:13:06.121Z,4.47
2019-03-18T23:15:35.024Z,3.90
2019-03-18T23:18:03.680Z,3.73
2019-03-18T23:20:32.201Z,4.77
2019-03-18T23:23:00.922Z,4.00
2019-03-18T23:25:29.566Z,3.63
2019-03-18T23:27:58.048Z,3.87
2019-03-18T23:30:27.183Z,4.00
2019-03-18T23:32:55.822Z,3.53
2019-03-18T23:35:24.459Z,3.97
2019-03-18T23:37:53.039Z,4.17
2019-03-18T23:40:22.272Z,4.20
2019-03-18T23:42:51.688Z,4.17
2019-03-18T23:45:20.455Z,4.30
2019-03-18T23:47:50.459Z,5.20
2019-03-18T23:50:19.280Z,4.93
2019-03-18T23:52:48.183Z,4.10
2019-03-18T23:55:19.711Z,4.23
2019-03-18T23:57:47.491Z,4.23
